createdAt,value
2023-04-22T00:01:09.101Z,44.75
2023-04-22T00:03:42.790Z,44.86
2023-04-22T00:06:15.143Z,45.05
2023-04-22T00:08:47.494Z,45.02
2023-04-22T00:11:19.630Z,45.28
2023-04-22T00:13:51.848Z,45.34
2023-04-22T00:16:24.017Z,45.39
2023-04-22T00:18:56.295Z,45.36
2023-04-22T00:21:28.737Z,45.37
2023-04-22T00:24:00.800Z,45.41
2023-04-22T00:26:33.103Z,45.45
2023-04-22T00:29:05.600Z,45.37
2023-04-22T00:31:38.578Z,45.39
2023-04-22T00:34:10.861Z,45.56
2023-04-22T00:36:43.320Z,45.59
2023-04-22T00:39:16.778Z,45.71
2023-04-22T00:41:49.047Z,45.69
2023-04-22T00:44:21.644Z,45.96
2023-04-22T00:46:54.484Z,46.30
2023-04-22T00:49:28.512Z,46.11
2023-04-22T00:52:00.669Z,46.32
2023-04-22T00:54:33.140Z,46.51
2023-04-22T00:57:07.209Z,46.47
2023-04-22T00:59:39.740Z,46.62
2023-04-22T01:02:12.967Z,46.66
2023-04-22T01:04:45.957Z,46.72
2023-04-22T01:07:18.760Z,46.93
2023-04-22T01:09:51.227Z,47.07
2023-04-22T01:12:23.381Z,47.33
2023-04-22T01:14:55.965Z,47.38
2023-04-22T01:17:28.313Z,47.55
2023-04-22T01:20:00.819Z,47.54
2023-04-22T01:22:36.916Z,47.76
2023-04-22T01:25:10.483Z,47.72
2023-04-22T01:27:43.145Z,47.92
2023-04-22T01:30:15.506Z,48.01
2023-04-22T01:32:48.095Z,48.22
2023-04-22T01:35:20.332Z,48.23
2023-04-22T01:37:53.214Z,48.49
2023-04-22T01:40:27.601Z,48.52
2023-04-22T01:43:00.946Z,48.54
2023-04-22T01:45:33.778Z,48.57
2023-04-22T01:48:07.119Z,48.73
2023-04-22T01:50:39.775Z,49.00
2023-04-22T01:53:12.329Z,49.00
2023-04-22T01:55:45.448Z,48.96
2023-04-22T01:58:18.516Z,49.04
2023-04-22T02:00:50.778Z,49.17
2023-04-22T02:03:23.204Z,49.42
2023-04-22T02:05:55.310Z,49.33
2023-04-22T02:08:27.520Z,49.41
2023-04-22T02:11:01.237Z,49.46
2023-04-22T02:13:38.436Z,49.60
2023-04-22T02:16:12.880Z,49.60
2023-04-22T02:18:46.692Z,49.74
2023-04-22T02:21:19.082Z,49.60
2023-04-22T02:23:51.122Z,49.92
2023-04-22T02:26:23.882Z,50.02
2023-04-22T02:28:56.094Z,50.14
2023-04-22T02:31:30.612Z,49.95
2023-04-22T02:34:02.992Z,49.69
2023-04-22T02:36:35.323Z,49.67
2023-04-22T02:39:07.351Z,49.80
2023-04-22T02:41:40.515Z,49.81
2023-04-22T02:44:13.186Z,49.69
2023-04-22T02:46:45.412Z,49.59
2023-04-22T02:49:17.890Z,49.43
2023-04-22T02:51:50.144Z,49.39
2023-04-22T02:54:23.512Z,49.24
2023-04-22T02:56:55.667Z,49.07
2023-04-22T02:59:27.988Z,48.90
2023-04-22T03:02:00.649Z,48.80
2023-04-22T03:04:34.496Z,48.49
2023-04-22T03:07:06.604Z,48.22
2023-04-22T03:09:39.507Z,47.75
2023-04-22T03:12:12.097Z,47.63
2023-04-22T03:14:44.365Z,47.68
2023-04-22T03:17:16.899Z,47.36
2023-04-22T03:19:49.404Z,47.13
2023-04-22T03:22:22.005Z,47.24
2023-04-22T03:24:56.176Z,47.21
2023-04-22T03:27:28.402Z,47.12
2023-04-22T03:30:00.646Z,46.95
2023-04-22T03:32:35.114Z,46.83
2023-04-22T03:35:09.289Z,47.00
2023-04-22T03:37:41.754Z,46.87
2023-04-22T03:40:15.659Z,46.77
2023-04-22T03:42:47.700Z,46.49
2023-04-22T03:45:21.726Z,46.45
2023-04-22T03:47:58.917Z,46.16
2023-04-22T03:50:32.715Z,46.23
2023-04-22T03:53:05.191Z,46.18
2023-04-22T03:55:37.495Z,45.88
2023-04-22T03:58:10.940Z,45.60
2023-04-22T04:00:43.809Z,45.46
2023-04-22T04:03:17.805Z,45.27
2023-04-22T04:05:51.860Z,45.01
2023-04-22T04:08:25.382Z,44.84
2023-04-22T04:10:57.979Z,44.76
2023-04-22T04:13:32.530Z,44.67
2023-04-22T04:16:23.494Z,44.47
2023-04-22T04:18:57.280Z,44.07
2023-04-22T04:21:31.986Z,44.01
2023-04-22T04:24:05.340Z,43.85
2023-04-22T04:26:39.392Z,43.69
2023-04-22T04:29:24.165Z,43.44
2023-04-22T04:32:00.976Z,42.98
2023-04-22T04:34:34.500Z,43.05
2023-04-22T04:37:07.186Z,43.04
2023-04-22T04:39:44.691Z,42.87
2023-04-22T04:42:17.512Z,42.87
2023-04-22T04:44:51.826Z,42.78
2023-04-22T04:47:25.102Z,42.73
2023-04-22T04:49:59.449Z,42.49
2023-04-22T04:52:33.089Z,42.11
2023-04-22T04:55:06.436Z,41.93
2023-04-22T04:57:39.133Z,41.57
2023-04-22T05:00:11.460Z,41.61
2023-04-22T05:02:44.531Z,41.49
2023-04-22T05:05:18.044Z,41.35
2023-04-22T05:07:51.979Z,40.90
2023-04-22T05:10:25.598Z,40.52
2023-04-22T05:12:58.360Z,40.52
2023-04-22T05:15:31.103Z,40.30
2023-04-22T05:18:03.272Z,40.29
2023-04-22T05:20:36.670Z,40.11
2023-04-22T05:23:09.225Z,39.67
2023-04-22T05:25:41.718Z,39.67
2023-04-22T05:28:15.431Z,39.45
2023-04-22T05:30:52.913Z,39.63
2023-04-22T05:33:25.025Z,39.36
2023-04-22T05:35:57.660Z,38.80
2023-04-22T05:38:30.890Z,38.54
2023-04-22T05:41:03.345Z,38.44
2023-04-22T05:43:35.859Z,38.27
2023-04-22T05:46:09.911Z,38.26
2023-04-22T05:48:43.815Z,38.25
2023-04-22T05:51:17.063Z,38.19
2023-04-22T05:53:48.771Z,37.91
2023-04-22T05:56:22.446Z,37.52
2023-04-22T05:58:55.074Z,37.03
2023-04-22T06:01:29.079Z,36.54
2023-04-22T06:04:05.781Z,36.04
2023-04-22T06:06:38.845Z,34.43
2023-04-22T06:09:11.009Z,33.45
2023-04-22T06:11:44.962Z,32.68
2023-04-22T06:14:17.341Z,32.11
2023-04-22T06:16:50.934Z,31.52
2023-04-22T06:19:22.902Z,28.73
2023-04-22T06:21:55.033Z,28.73
2023-04-22T06:24:28.162Z,26.60
2023-04-22T06:27:00.284Z,25.55
2023-04-22T06:29:33.592Z,25.11
2023-04-22T06:32:06.083Z,24.65
2023-04-22T06:34:38.959Z,24.89
2023-04-22T06:37:11.236Z,24.66
2023-04-22T06:39:44.528Z,24.33
2023-04-22T06:42:34.748Z,23.59
2023-04-22T06:45:26.741Z,23.58
2023-04-22T06:48:00.318Z,23.20
2023-04-22T06:50:34.103Z,23.88
2023-04-22T06:53:06.767Z,22.57
2023-04-22T06:55:39.986Z,22.33
2023-04-22T06:58:12.434Z,21.53
2023-04-22T07:00:44.770Z,20.20
2023-04-22T07:03:18.284Z,19.39
2023-04-22T07:05:52.404Z,18.97
2023-04-22T07:08:24.856Z,19.57
2023-04-22T07:10:58.136Z,21.00
2023-04-22T07:13:41.418Z,22.93
2023-04-22T07:16:14.003Z,24.24
2023-04-22T07:18:46.173Z,25.81
2023-04-22T07:21:18.244Z,25.94
2023-04-22T07:23:50.381Z,25.74
2023-04-22T07:26:23.006Z,26.93
2023-04-22T07:28:55.636Z,26.47
2023-04-22T07:31:27.845Z,26.96
2023-04-22T07:34:01.324Z,26.72
2023-04-22T07:36:33.309Z,27.76
2023-04-22T07:39:06.021Z,27.04
2023-04-22T07:41:39.666Z,27.35
2023-04-22T07:44:13.529Z,28.61
2023-04-22T07:46:46.228Z,28.11
2023-04-22T07:49:20.089Z,28.66
2023-04-22T07:51:52.808Z,28.66
2023-04-22T07:54:25.678Z,28.70
2023-04-22T07:56:58.614Z,29.61
2023-04-22T07:59:31.857Z,30.03
2023-04-22T08:02:04.463Z,29.55
2023-04-22T08:04:37.581Z,29.92
2023-04-22T08:07:29.696Z,29.67
2023-04-22T08:09:44.831Z,29.14
2023-04-22T08:12:17.169Z,28.61
2023-04-22T08:14:49.548Z,27.72
2023-04-22T08:17:23.358Z,26.23
2023-04-22T08:19:56.242Z,25.34
2023-04-22T08:22:28.915Z,25.06
2023-04-22T08:25:02.031Z,24.76
2023-04-22T08:27:34.652Z,24.61
2023-04-22T08:30:08.404Z,24.48
2023-04-22T08:32:40.685Z,24.62
2023-04-22T08:35:13.234Z,24.75
2023-04-22T08:37:45.455Z,25.17
2023-04-22T08:40:18.704Z,25.40
2023-04-22T08:42:52.559Z,25.58
2023-04-22T08:45:25.224Z,25.64
2023-04-22T08:47:58.381Z,25.96
2023-04-22T08:50:33.092Z,26.41
2023-04-22T08:53:05.428Z,26.98
2023-04-22T08:55:38.129Z,27.13
2023-04-22T08:58:12.091Z,26.88
2023-04-22T09:00:47.225Z,26.74
2023-04-22T09:03:20.774Z,26.80
2023-04-22T09:05:54.547Z,27.38
2023-04-22T09:08:27.757Z,27.34
2023-04-22T09:11:00.742Z,26.79
2023-04-22T09:13:34.368Z,26.98
2023-04-22T09:16:07.595Z,26.91
2023-04-22T09:18:46.071Z,26.47
2023-04-22T09:21:18.440Z,24.92
2023-04-22T09:23:52.877Z,25.09
2023-04-22T09:26:26.137Z,25.15
2023-04-22T09:29:01.003Z,25.28
2023-04-22T09:31:34.872Z,24.58
2023-04-22T09:34:07.802Z,24.64
2023-04-22T09:36:40.843Z,24.28
2023-04-22T09:39:13.504Z,24.41
2023-04-22T09:41:46.224Z,24.67
2023-04-22T09:44:19.280Z,24.48
2023-04-22T09:46:51.711Z,24.91
2023-04-22T09:49:25.451Z,25.47
2023-04-22T09:51:58.984Z,25.98
2023-04-22T09:54:31.668Z,26.09
2023-04-22T09:57:06.057Z,25.25
2023-04-22T09:59:39.135Z,25.72
2023-04-22T10:02:11.666Z,25.84
2023-04-22T10:04:44.251Z,26.20
2023-04-22T10:07:18.022Z,27.05
2023-04-22T10:09:50.880Z,27.52
2023-04-22T10:12:32.971Z,27.65
2023-04-22T10:14:57.366Z,27.65
2023-04-22T10:17:35.538Z,27.32
2023-04-22T10:20:12.826Z,26.20
2023-04-22T10:22:45.703Z,25.59
2023-04-22T10:25:28.874Z,24.48
2023-04-22T10:28:12.225Z,24.31
2023-04-22T10:30:44.542Z,25.69
2023-04-22T10:33:26.614Z,24.36
2023-04-22T10:36:14.242Z,23.45
2023-04-22T10:38:58.521Z,23.08
2023-04-22T10:41:36.313Z,23.21
2023-04-22T10:44:10.002Z,23.60
2023-04-22T10:46:54.768Z,24.23
2023-04-22T10:49:29.720Z,24.61
2023-04-22T10:52:04.247Z,25.10
2023-04-22T10:54:47.592Z,25.20
2023-04-22T10:57:24.500Z,26.07
2023-04-22T11:00:01.990Z,25.31
2023-04-22T11:02:38.534Z,25.58
2023-04-22T11:05:25.837Z,25.08
2023-04-22T11:07:59.724Z,24.79
2023-04-22T11:10:44.679Z,24.42
2023-04-22T11:13:19.787Z,24.35
2023-04-22T11:15:54.485Z,24.37
2023-04-22T11:18:28.235Z,23.64
2023-04-22T11:21:08.883Z,23.06
2023-04-22T11:23:42.806Z,22.64
2023-04-22T11:26:15.642Z,22.43
2023-04-22T11:28:50.895Z,22.36
2023-04-22T11:31:23.108Z,22.18
2023-04-22T11:33:57.204Z,22.86
2023-04-22T11:36:29.608Z,23.14
2023-04-22T11:39:02.450Z,23.14
2023-04-22T11:41:35.436Z,23.67
2023-04-22T11:44:08.166Z,24.87
2023-04-22T11:46:40.739Z,23.27
2023-04-22T11:49:14.975Z,22.92
2023-04-22T11:51:59.475Z,23.18
2023-04-22T11:54:37.547Z,23.34
2023-04-22T11:57:13.304Z,23.72
2023-04-22T11:59:45.790Z,23.54
2023-04-22T12:02:19.291Z,23.04
2023-04-22T12:04:52.015Z,22.76
2023-04-22T12:07:24.562Z,22.25
2023-04-22T12:09:57.709Z,21.58
2023-04-22T12:12:30.750Z,19.97
2023-04-22T12:15:13.528Z,17.85
2023-04-22T12:17:46.968Z,15.86
2023-04-22T12:20:22.308Z,14.00
2023-04-22T12:22:54.885Z,12.69
2023-04-22T12:25:28.274Z,11.36
2023-04-22T12:28:01.304Z,10.84
2023-04-22T12:30:35.396Z,10.62
2023-04-22T12:33:07.628Z,11.03
2023-04-22T12:35:40.242Z,11.93
2023-04-22T12:38:13.870Z,13.07
2023-04-22T12:40:46.901Z,14.56
2023-04-22T12:43:20.186Z,15.34
2023-04-22T12:45:54.932Z,14.48
2023-04-22T12:48:27.514Z,13.19
2023-04-22T12:51:00.694Z,11.44
2023-04-22T12:53:33.328Z,9.87
2023-04-22T12:56:05.839Z,8.76
2023-04-22T12:58:39.045Z,7.65
2023-04-22T13:01:11.587Z,7.29
2023-04-22T13:03:44.406Z,7.05
2023-04-22T13:06:17.441Z,6.60
2023-04-22T13:08:51.822Z,6.52
2023-04-22T13:11:24.975Z,6.35
2023-04-22T13:13:58.832Z,7.64
2023-04-22T13:16:31.758Z,7.84
2023-04-22T13:19:04.728Z,9.14
2023-04-22T13:21:37.294Z,10.21
2023-04-22T13:24:09.950Z,11.77
2023-04-22T13:26:42.533Z,13.29
2023-04-22T13:29:14.853Z,14.64
2023-04-22T13:31:47.122Z,15.91
2023-04-22T13:34:19.784Z,17.05
2023-04-22T13:36:52.348Z,17.64
2023-04-22T13:39:25.747Z,18.29
2023-04-22T13:41:58.115Z,17.73
2023-04-22T13:44:30.508Z,15.62
2023-04-22T13:47:02.981Z,13.45
2023-04-22T13:49:35.102Z,11.79
2023-04-22T13:52:07.142Z,10.59
2023-04-22T13:54:39.215Z,9.32
2023-04-22T13:57:12.205Z,8.42
2023-04-22T13:59:44.531Z,7.79
2023-04-22T14:02:17.779Z,7.00
2023-04-22T14:04:50.043Z,7.30
2023-04-22T14:07:22.777Z,7.30
2023-04-22T14:09:55.742Z,7.43
2023-04-22T14:12:28.339Z,7.49
2023-04-22T14:15:00.789Z,7.60
2023-04-22T14:17:35.166Z,8.07
2023-04-22T14:20:08.431Z,9.02
2023-04-22T14:22:40.670Z,10.62
2023-04-22T14:25:13.530Z,12.11
2023-04-22T14:27:46.638Z,13.96
2023-04-22T14:30:20.728Z,15.45
2023-04-22T14:32:53.225Z,16.63
2023-04-22T14:35:26.189Z,17.82
2023-04-22T14:37:58.680Z,18.46
2023-04-22T14:40:31.146Z,17.59
2023-04-22T14:43:05.781Z,15.95
2023-04-22T14:45:38.623Z,14.01
2023-04-22T14:48:11.447Z,13.16
2023-04-22T14:50:44.329Z,12.58
2023-04-22T14:53:16.458Z,12.95
2023-04-22T14:55:48.729Z,14.02
2023-04-22T14:58:20.822Z,15.16
2023-04-22T15:00:53.249Z,16.68
2023-04-22T15:03:25.576Z,17.99
2023-04-22T15:05:58.152Z,19.25
2023-04-22T15:08:30.519Z,20.14
2023-04-22T15:11:02.850Z,20.96
2023-04-22T15:13:36.392Z,21.74
2023-04-22T15:16:09.148Z,22.42
2023-04-22T15:18:42.758Z,22.70
2023-04-22T15:21:14.993Z,23.85
2023-04-22T15:23:47.771Z,23.60
2023-04-22T15:26:20.049Z,23.82
2023-04-22T15:28:52.321Z,24.34
2023-04-22T15:31:24.950Z,24.34
2023-04-22T15:33:57.078Z,24.92
2023-04-22T15:36:30.203Z,24.75
2023-04-22T15:39:03.233Z,24.77
2023-04-22T15:41:35.472Z,25.02
2023-04-22T15:44:08.773Z,24.90
2023-04-22T15:46:41.752Z,24.72
2023-04-22T15:49:15.095Z,24.97
2023-04-22T15:51:47.294Z,25.33
2023-04-22T15:54:19.595Z,25.63
2023-04-22T15:56:51.775Z,25.98
2023-04-22T15:59:24.258Z,26.24
2023-04-22T16:01:57.107Z,26.51
2023-04-22T16:04:29.701Z,26.93
2023-04-22T16:07:01.978Z,27.06
2023-04-22T16:09:34.377Z,27.46
2023-04-22T16:12:06.872Z,27.46
2023-04-22T16:14:38.963Z,27.57
2023-04-22T16:17:11.049Z,27.85
2023-04-22T16:19:43.609Z,28.04
2023-04-22T16:22:15.683Z,28.49
2023-04-22T16:24:47.636Z,28.49
2023-04-22T16:27:19.824Z,28.43
2023-04-22T16:29:52.649Z,28.90
2023-04-22T16:32:25.429Z,28.90
2023-04-22T16:34:57.802Z,28.95
2023-04-22T16:37:31.102Z,29.25
2023-04-22T16:40:04.981Z,29.68
2023-04-22T16:42:37.977Z,29.68
2023-04-22T16:45:10.791Z,29.69
2023-04-22T16:47:43.082Z,30.12
2023-04-22T16:50:15.695Z,30.16
2023-04-22T16:52:48.076Z,30.11
2023-04-22T16:55:21.297Z,30.59
2023-04-22T16:57:53.608Z,30.69
2023-04-22T17:00:26.212Z,30.69
2023-04-22T17:02:58.799Z,30.55
2023-04-22T17:05:31.431Z,30.91
2023-04-22T17:08:03.662Z,31.25
2023-04-22T17:10:37.370Z,31.36
2023-04-22T17:13:09.374Z,31.33
2023-04-22T17:15:41.983Z,31.52
2023-04-22T17:18:15.102Z,31.89
2023-04-22T17:20:49.190Z,31.96
2023-04-22T17:23:21.444Z,32.04
2023-04-22T17:25:53.905Z,31.49
2023-04-22T17:28:26.534Z,31.82
2023-04-22T17:30:58.760Z,32.40
2023-04-22T17:33:31.459Z,32.24
2023-04-22T17:36:04.250Z,32.40
2023-04-22T17:38:36.661Z,32.56
2023-04-22T17:41:09.255Z,32.74
2023-04-22T17:43:41.786Z,33.18
2023-04-22T17:46:14.063Z,33.66
2023-04-22T17:48:46.996Z,33.46
2023-04-22T17:51:19.520Z,33.66
2023-04-22T17:53:53.019Z,33.84
2023-04-22T17:56:26.790Z,33.45
2023-04-22T17:59:00.127Z,34.32
2023-04-22T18:01:32.852Z,34.90
2023-04-22T18:04:06.030Z,34.89
2023-04-22T18:06:39.977Z,35.01
2023-04-22T18:09:12.386Z,35.18
2023-04-22T18:11:44.722Z,35.51
2023-04-22T18:14:17.003Z,35.43
2023-04-22T18:16:49.172Z,35.69
2023-04-22T18:19:21.359Z,35.67
2023-04-22T18:22:00.115Z,35.79
2023-04-22T18:24:27.554Z,35.78
2023-04-22T18:26:59.258Z,33.10
2023-04-22T18:29:33.520Z,35.22
2023-04-22T18:32:06.040Z,35.78
2023-04-22T18:34:38.792Z,35.78
2023-04-22T18:37:11.213Z,35.73
2023-04-22T18:39:43.773Z,35.80
2023-04-22T18:42:16.083Z,35.82
2023-04-22T18:44:48.502Z,35.83
2023-04-22T18:47:20.976Z,36.60
2023-04-22T18:49:53.119Z,36.35
2023-04-22T18:52:25.720Z,36.68
2023-04-22T18:54:57.775Z,36.53
2023-04-22T18:57:30.342Z,37.27
2023-04-22T19:00:03.157Z,37.33
2023-04-22T19:02:39.771Z,37.22
2023-04-22T19:05:11.381Z,37.29
2023-04-22T19:07:45.182Z,37.30
2023-04-22T19:10:17.838Z,37.62
2023-04-22T19:12:50.211Z,37.20
2023-04-22T19:15:22.216Z,37.86
2023-04-22T19:17:54.222Z,37.83
2023-04-22T19:20:26.495Z,37.55
2023-04-22T19:22:58.797Z,38.17
2023-04-22T19:25:31.798Z,38.31
2023-04-22T19:28:03.894Z,38.22
2023-04-22T19:30:36.194Z,38.38
2023-04-22T19:33:08.368Z,38.97
2023-04-22T19:35:40.347Z,39.61
2023-04-22T19:38:14.101Z,39.46
2023-04-22T19:40:46.377Z,39.22
2023-04-22T19:43:19.458Z,39.31
2023-04-22T19:45:51.862Z,39.36
2023-04-22T19:48:24.807Z,39.46
2023-04-22T19:50:57.883Z,39.15
2023-04-22T19:53:31.703Z,38.73
2023-04-22T19:56:04.747Z,38.84
2023-04-22T19:58:37.223Z,39.07
2023-04-22T20:01:09.691Z,39.08
2023-04-22T20:03:42.425Z,38.94
2023-04-22T20:06:15.597Z,38.98
2023-04-22T20:08:48.144Z,39.34
2023-04-22T20:11:21.701Z,39.30
2023-04-22T20:13:54.514Z,39.37
2023-04-22T20:16:28.167Z,39.08
2023-04-22T20:19:00.401Z,39.63
2023-04-22T20:21:33.137Z,39.31
2023-04-22T20:24:06.346Z,39.67
2023-04-22T20:26:39.099Z,40.06
2023-04-22T20:29:11.841Z,40.33
2023-04-22T20:31:44.036Z,40.49
2023-04-22T20:34:16.618Z,40.40
2023-04-22T20:36:49.739Z,40.50
2023-04-22T20:39:23.544Z,40.83
2023-04-22T20:41:59.525Z,40.86
2023-04-22T20:44:31.910Z,40.65
2023-04-22T20:47:04.161Z,41.01
2023-04-22T20:49:38.205Z,41.44
2023-04-22T20:52:11.556Z,41.51
2023-04-22T20:54:44.415Z,42.06
2023-04-22T20:57:16.771Z,42.28
2023-04-22T20:59:49.439Z,42.41
2023-04-22T21:02:22.787Z,42.44
2023-04-22T21:04:55.482Z,42.81
2023-04-22T21:07:30.858Z,42.76
2023-04-22T21:10:03.275Z,42.59
2023-04-22T21:12:36.011Z,42.92
2023-04-22T21:15:09.234Z,42.93
2023-04-22T21:17:44.809Z,42.89
2023-04-22T21:20:21.026Z,43.15
2023-04-22T21:22:55.197Z,43.03
2023-04-22T21:25:28.801Z,43.22
2023-04-22T21:28:01.379Z,43.48
2023-04-22T21:30:33.605Z,43.89
2023-04-22T21:33:05.852Z,43.53
2023-04-22T21:35:39.448Z,42.82
2023-04-22T21:38:11.724Z,43.11
2023-04-22T21:40:44.014Z,42.96
2023-04-22T21:43:16.028Z,43.04
2023-04-22T21:45:48.426Z,42.19
2023-04-22T21:48:21.218Z,42.53
2023-04-22T21:50:53.558Z,43.04
2023-04-22T21:53:25.814Z,43.03
2023-04-22T21:55:57.908Z,43.08
2023-04-22T21:58:29.954Z,43.10
2023-04-22T22:01:02.091Z,43.01
2023-04-22T22:03:34.991Z,42.79
2023-04-22T22:06:07.659Z,42.58
2023-04-22T22:08:40.840Z,42.83
2023-04-22T22:11:27.513Z,42.86
2023-04-22T22:13:48.430Z,42.50
2023-04-22T22:16:20.663Z,42.61
2023-04-22T22:18:52.825Z,43.44
2023-04-22T22:21:26.137Z,42.87
2023-04-22T22:23:58.169Z,42.94
2023-04-22T22:26:30.730Z,43.32
2023-04-22T22:29:03.402Z,43.41
2023-04-22T22:31:36.055Z,44.04
2023-04-22T22:34:08.175Z,43.75
2023-04-22T22:36:41.397Z,43.28
2023-04-22T22:39:15.449Z,42.73
2023-04-22T22:41:48.357Z,41.92
2023-04-22T22:44:20.795Z,42.10
2023-04-22T22:46:53.235Z,41.77
2023-04-22T22:49:25.504Z,41.57
2023-04-22T22:51:58.149Z,41.89
2023-04-22T22:54:30.374Z,41.85
2023-04-22T22:57:03.237Z,41.70
2023-04-22T22:59:36.510Z,41.53
2023-04-22T23:02:08.835Z,41.88
2023-04-22T23:04:42.290Z,41.64
2023-04-22T23:07:16.182Z,41.59
2023-04-22T23:09:48.201Z,41.88
2023-04-22T23:12:20.410Z,42.21
2023-04-22T23:14:52.538Z,42.16
2023-04-22T23:17:25.089Z,42.26
2023-04-22T23:19:57.361Z,42.60
2023-04-22T23:22:31.271Z,42.88
2023-04-22T23:25:04.358Z,42.89
2023-04-22T23:27:36.783Z,43.03
2023-04-22T23:30:09.767Z,43.13
2023-04-22T23:32:43.902Z,43.43
2023-04-22T23:35:17.036Z,43.54
2023-04-22T23:37:50.836Z,43.85
2023-04-22T23:40:23.202Z,43.91
2023-04-22T23:42:55.517Z,44.02
2023-04-22T23:45:27.661Z,43.75
2023-04-22T23:48:00.107Z,43.64
2023-04-22T23:50:32.227Z,43.85
2023-04-22T23:53:04.576Z,43.06
2023-04-22T23:55:37.411Z,42.99
2023-04-22T23:58:09.479Z,42.64
